Los Angeles, California
Traffic Map
Current Weather Conditions
Los Angeles, California
Clear Haze
Clear
64°
Feels Like: 64°
Wind Chill: 64° Ceiling: Unl
Heat Index: 64° Visibility: 5mi
Dew Point: 59° Wind: 0mph
Humidity: 84% Direction: ° ()
Pressure: 29.89in Gusts: 0mph
Raw Report DataKCQT 230747Z AUTO 00000KT 5SM HZ CLR 18/15 A2989 RMK AO2 SLP117 T01780150 402440172 $
Traffic Incident Summary
Active as of:
Severity:
Category:
InformationThere was an issue retrieving the traffic information for this location. Please try a different location or try again shortly.
Advertisements